Map

Track Data

SID SEASON NUMBER BASIN SUBBASIN NAME ISO_TIME NATURE LAT LON WMO_WIND WMO_PRES WMO_AGENCY TRACK_TYPE DIST2LAND LANDFALL IFLAG USA_AGENCY USA_ATCF_ID USA_LAT USA_LON USA_RECORD USA_STATUS USA_WIND USA_PRES USA_SSHS USA_R34_NE USA_R34_SE USA_R34_SW USA_R34_NW USA_R50_NE USA_R50_SE USA_R50_SW USA_R50_NW USA_R64_NE USA_R64_SE USA_R64_SW USA_R64_NW USA_POCI USA_ROCI USA_RMW USA_EYE TOKYO_LAT TOKYO_LON TOKYO_GRADE TOKYO_WIND TOKYO_PRES TOKYO_R50_DIR TOKYO_R50_LONG TOKYO_R50_SHORT TOKYO_R30_DIR TOKYO_R30_LONG TOKYO_R30_SHORT TOKYO_LAND CMA_LAT CMA_LON CMA_CAT CMA_WIND CMA_PRES HKO_LAT HKO_LON HKO_CAT HKO_WIND HKO_PRES NEWDELHI_LAT NEWDELHI_LON NEWDELHI_GRADE NEWDELHI_WIND NEWDELHI_PRES NEWDELHI_CI NEWDELHI_DP NEWDELHI_POCI REUNION_LAT REUNION_LON REUNION_TYPE REUNION_WIND REUNION_PRES REUNION_TNUM REUNION_CI REUNION_RMW REUNION_R34_NE REUNION_R34_SE REUNION_R34_SW REUNION_R34_NW REUNION_R50_NE REUNION_R50_SE REUNION_R50_SW REUNION_R50_NW REUNION_R64_NE REUNION_R64_SE REUNION_R64_SW REUNION_R64_NW BOM_LAT BOM_LON BOM_TYPE BOM_WIND BOM_PRES BOM_TNUM BOM_CI BOM_RMW BOM_R34_NE BOM_R34_SE BOM_R34_SW BOM_R34_NW BOM_R50_NE BOM_R50_SE BOM_R50_SW BOM_R50_NW BOM_R64_NE BOM_R64_SE BOM_R64_SW BOM_R64_NW BOM_ROCI BOM_POCI BOM_EYE BOM_POS_METHOD BOM_PRES_METHOD NADI_LAT NADI_LON NADI_CAT NADI_WIND NADI_PRES WELLINGTON_LAT WELLINGTON_LON WELLINGTON_WIND WELLINGTON_PRES DS824_LAT DS824_LON DS824_STAGE DS824_WIND DS824_PRES TD9636_LAT TD9636_LON TD9636_STAGE TD9636_WIND TD9636_PRES TD9635_LAT TD9635_LON TD9635_WIND TD9635_PRES TD9635_ROCI NEUMANN_LAT NEUMANN_LON NEUMANN_CLASS NEUMANN_WIND NEUMANN_PRES MLC_LAT MLC_LON MLC_CLASS MLC_WIND MLC_PRES USA_GUST BOM_GUST BOM_GUST_PER REUNION_GUST REUNION_GUST_PER USA_SEAHGT USA_SEARAD_NE USA_SEARAD_SE USA_SEARAD_SW USA_SEARAD_NW STORM_SPEED STORM_DIR
1971336S07170 1972 156 SP MM URSULA 1971-12-02 00:00:00 TS -6.90000 169.800 main 928 878 O________OO___ jtwc_sh SH051972 -6.90000 169.800 -1 -6.90000 169.800 TC 20 1004 -6.90000 169.800 4 10 241
1971336S07170 1972 156 SP MM URSULA 1971-12-02 03:00:00 TS -7.15510 169.342 main 863 814 P________PP___ SH051972 -7.15509 169.345 -1 -7.15511 169.340 TC 20 1004 -7.15511 169.340 4 10 241
1971336S07170 1972 156 SP MM URSULA 1971-12-02 06:00:00 TS -7.39899 168.897 main 814 764 O________PP___ jtwc_sh SH051972 -7.40000 168.900 -1 -7.39799 168.893 TC 20 1004 -7.39799 168.893 4 10 242
1971336S07170 1972 156 SP MM URSULA 1971-12-02 09:00:00 TS -7.61966 168.476 main 764 715 P________PP___ SH051972 -7.62248 168.477 -1 -7.61685 168.475 TC 20 1004 -7.61685 168.475 4 9 243
1971336S07170 1972 156 SP MM URSULA 1971-12-02 12:00:00 TS -7.80000 168.100 main 715 680 O________OO___ jtwc_sh SH051972 -7.80000 168.100 -1 -7.80000 168.100 TC 20 1004 -7.80000 168.100 4 8 246
1971336S07170 1972 156 SP MM URSULA 1971-12-02 15:00:00 TS -7.92740 167.775 main 680 646 P________PP___ SH051972 -7.91497 167.770 -1 -7.93982 167.779 TC 21 1003 -7.93982 167.779 4 6 249
1971336S07170 1972 156 SP MM URSULA 1971-12-02 18:00:00 TS -8.02240 167.505 main 646 621 O________PP___ jtwc_sh SH051972 -8.00000 167.500 -1 -8.04480 167.510 TC 22 1003 -8.04480 167.510 4 5 249
1971336S07170 1972 156 SP MM URSULA 1971-12-02 21:00:00 TS -8.11743 167.278 main 621 611 P________PP___ SH051972 -8.10748 167.270 -1 -8.12739 167.286 TC 23 1002 -8.12739 167.286 4 3 252
1971336S07170 1972 156 SP MM URSULA 1971-12-03 00:00:00 TS -8.12222 167.200 30 997 wellington main 611 602 O_______OOO_O_ jtwc_sh SH051972 -8.20000 167.100 -1 -7.50000 168.000 30 997 -8.20000 167.100 TC 25 1002 -8.20000 167.100 4 -7.50000 168.000 TC 15 2 268
1971336S07170 1972 156 SP MM URSULA 1971-12-03 03:00:00 TS -8.12269 167.123 main 602 592 P_______PPP_P_ SH051972 -8.24998 166.992 -1 -7.54860 167.728 30 997 -8.28209 166.943 TC 25 1002 -8.28209 166.943 4 -7.55002 167.755 TC 15 2 267
1971336S07170 1972 156 SP MM URSULA 1971-12-03 06:00:00 TS -8.12964 167.030 main 592 577 O_______PPP_O_ jtwc_sh SH051972 -8.30000 166.900 -1 -7.59768 167.465 30 997 -8.35737 166.820 TC 25 1002 -8.35737 166.820 4 -7.60000 167.500 TC 15 2 261
1971336S07170 1972 156 SP MM URSULA 1971-12-03 09:00:00 TS -8.15931 166.899 main 577 558 P_______PPP_P_ SH051972 -8.40000 166.758 -1 -7.64791 167.219 30 997 -8.42898 166.712 TC 25 1002 -8.42898 166.712 4 -7.65001 167.235 TC 15 3 251
1971336S07170 1972 156 SP MM URSULA 1971-12-03 12:00:00 TS -8.23333 166.733 30 997 wellington main 558 543 O_______OOO_O_ jtwc_sh SH051972 -8.50000 166.600 -1 -7.70000 167.000 30 997 -8.50000 166.600 TC 25 1002 -8.50000 166.600 4 -7.70000 167.000 TC 15 3 247
1971336S07170 1972 156 SP MM URSULA 1971-12-03 15:00:00 TS -8.29368 166.576 main 543 518 P_______PPP_P_ SH051972 -8.54999 166.450 -1 -7.75400 166.813 30 997 -8.57907 166.453 TC 25 1002 -8.57907 166.453 4 -7.74997 166.835 TC 17 3 248
1971336S07170 1972 156 SP MM URSULA 1971-12-03 18:00:00 TS -8.35374 166.426 main 518 508 O_______PPP_O_ jtwc_sh SH051972 -8.60000 166.300 -1 -7.80743 166.655 30 997 -8.65751 166.300 TC 25 1002 -8.65751 166.300 4 -7.80000 166.700 TC 20 3 246
1971336S07170 1972 156 SP MM URSULA 1971-12-03 21:00:00 TS -8.42859 166.276 main 508 484 P_______PPP_P_ SH051972 -8.69999 166.150 -1 -7.85714 166.519 30 997 -8.73219 166.147 TC 25 1002 -8.73219 166.147 4 -7.85000 166.542 TC 20 3 243
1971336S07170 1972 156 SP MM URSULA 1971-12-04 00:00:00 TS -8.50000 166.133 30 997 wellington main 484 474 O_______OOO_O_ jtwc_sh SH051972 -8.80000 166.000 -1 -7.90000 166.400 30 997 -8.80000 166.000 TC 25 1002 -8.80000 166.000 4 -7.90000 166.400 TC 20 3 245
1971336S07170 1972 156 SP MM URSULA 1971-12-04 03:00:00 TS -8.55247 166.005 main 469 459 P_______PPP_P_ SH051972 -8.85750 165.842 -1 -7.91991 166.310 30 997 -8.86121 165.872 TC 25 1002 -8.86121 165.872 4 -7.95749 166.292 TC 20 3 249
1971336S07170 1972 156 SP MM URSULA 1971-12-04 06:00:00 TS -8.59413 165.888 main 459 450 O_______PPP_O_ jtwc_sh SH051972 -8.90000 165.700 -1 -7.93487 166.230 30 997 -8.91495 165.750 TC 25 1002 -8.91495 165.750 4 -8.00000 166.200 TC 20 2 250
1971336S07170 1972 156 SP MM URSULA 1971-12-04 09:00:00 TS -8.63121 165.786 main 450 435 P_______PPP_P_ SH051972 -8.95748 165.600 -1 -7.95739 166.135 30 997 -8.96121 165.628 TC 25 1002 -8.96121 165.628 4 -7.99247 166.122 TC 20 2 252
1971336S07170 1972 156 SP MM URSULA 1971-12-04 12:00:00 TS -8.66667 165.667 30 997 wellington main 435 416 O_______OOO_O_ jtwc_sh SH051972 -9.00000 165.500 -1 -8.00000 166.000 30 997 -9.00000 165.500 TC 25 1002 -9.00000 165.500 4 -8.00000 166.000 TC 20 3 258
1971336S07170 1972 156 SP MM URSULA 1971-12-04 15:00:00 TS -8.69170 165.496 main 416 398 P_______PPP_P_ SH051972 -9.00000 165.357 -1 -8.07037 165.793 32 995 -9.02725 165.354 TC 27 1001 -9.02002 165.349 4 -8.03253 165.765 TC 22 4 258
1971336S07170 1972 156 SP MM URSULA 1971-12-04 18:00:00 TS -8.74100 165.306 main 398 373 O_______PPP_O_ jtwc_sh SH051972 -9.00000 165.200 -1 -8.16257 165.545 35 993 -9.04839 165.201 TC 30 1000 -9.03503 165.192 4 -8.20000 165.500 TC 25 4 246
1971336S07170 1972 156 SP MM URSULA 1971-12-04 21:00:00 TS -8.85355 165.121 main 367 351 P_______PPP_P_ SH051972 -9.03500 165.042 -1 -8.27348 165.274 37 991 -9.07033 165.048 TC 32 999 -9.05752 165.040 4 -8.65000 165.278 TC 30 4 236
1971336S07170 1972 156 SP MM URSULA 1971-12-05 00:00:00 TS -8.98333 164.950 40 990 wellington main 351 327 O_______OOO_O_ jtwc_sh SH051972 -9.10000 164.900 -1 -8.40000 165.000 40 990 -9.10000 164.900 TC 35 998 -9.10000 164.900 4 -9.10000 165.100 TC 35 998 4 233
1971336S07170 1972 156 SP MM URSULA 1971-12-05 03:00:00 TS -9.08289 164.818 main 327 312 P_______PPP_P_ SH051972 -9.19249 164.792 -1 -8.54776 164.750 40 990 -9.12562 164.795 TC -9.18652 164.790 4 -9.25247 164.985 TC 42 993 3 232
1971336S07170 1972 156 SP MM URSULA 1971-12-05 06:00:00 TS -9.17597 164.700 main 312 296 O_______PPP_O_ jtwc_sh SH051972 -9.30000 164.700 -1 -8.70743 164.500 40 990 -9.15593 164.707 TC -9.29245 164.693 4 -9.30000 164.900 TC 50 989 3 230
1971336S07170 1972 156 SP MM URSULA 1971-12-05 09:00:00 TS -9.28061 164.579 main 296 281 P_______PPP_P_ SH051972 -9.40750 164.600 -1 -8.86339 164.250 40 990 -9.19565 164.626 TC -9.40215 164.599 4 -9.40750 164.800 TC 55 984 3 230
1971336S07170 1972 156 SP MM URSULA 1971-12-05 12:00:00 TS -9.37491 164.457 40 990 wellington main 281 263 O_______OPO_O_ jtwc_sh SH051972 -9.50000 164.500 -1 -9.00000 164.000 40 990 -9.24948 164.543 TC -9.50000 164.500 4 -9.50000 164.700 TC 60 980 3 237
1971336S07170 1972 156 SP MM URSULA 1971-12-05 15:00:00 TS -9.43377 164.338 main 263 247 P_______PPP_P_ SH051972 -9.55749 164.408 -1 -9.07214 163.750 43 987 -9.32214 164.448 TC -9.53585 164.406 4 -9.55749 164.607 TC 65 976 3 246
1971336S07170 1972 156 SP MM URSULA 1971-12-05 18:00:00 TS -9.48469 164.206 main 247 238 O_______PPP_O_ jtwc_sh SH051972 -9.60000 164.300 -1 -9.12743 163.500 47 985 -9.41833 164.332 TC -9.56236 164.302 4 -9.60000 164.500 TC 70 972 3 249
1971336S07170 1972 156 SP MM URSULA 1971-12-05 21:00:00 TS -9.54031 164.055 main 238 214 P_______PPP_P_ SH051972 -9.63498 164.172 -1 -9.19401 163.250 51 982 -9.54273 164.186 TC -9.60769 164.172 4 -9.62746 164.380 TC 75 968 4 246
1971336S07170 1972 156 SP MM URSULA 1971-12-06 00:00:00 TS -9.63333 163.867 55 980 wellington main 214 174 O_______OOO_O_ jtwc_sh SH051972 -9.70000 164.000 -1 -9.30000 163.000 55 980 -9.70000 164.000 TC 80 965 -9.70000 164.000 4 -9.70000 164.200 TC 80 965 5 242
1971336S07170 1972 156 SP MM URSULA 1971-12-06 03:00:00 TS -9.77858 163.605 main 174 134 P_______PPP_P_ SH051972 -9.81249 163.772 -1 -9.46575 162.689 57 977 -9.86428 163.732 TC 83 961 -9.84644 163.748 4 -9.87004 163.915 TC 85 961 6 237
1971336S07170 1972 156 SP MM URSULA 1971-12-06 06:00:00 TS -9.98072 163.314 main 134 94 O_______PPP_O_ jtwc_sh SH051972 -10.0000 163.500 -1 -9.67517 162.388 60 975 -10.0639 163.441 TC 87 957 -10.0453 163.458 4 -10.1000 163.600 TC 90 957 7 232
1971336S07170 1972 156 SP MM URSULA 1971-12-06 09:00:00 TS -10.2283 163.029 main 94 59 P_______PPP_P_ SH051972 -10.2625 163.193 -1 -9.92198 162.143 62 972 -10.3065 163.155 TC 91 953 -10.2964 163.164 4 -10.3200 163.327 TC 95 953 8 223
1971336S07170 1972 156 SP MM URSULA 1971-12-06 12:00:00 TS -10.5333 162.783 65 970 wellington main 59 32 O_______OOO_O_ jtwc_sh SH051972 -10.6000 162.900 -1 -10.2000 162.000 65 970 -10.6000 162.900 TC 95 950 -10.6000 162.900 4 -10.6000 163.100 TC 100 950 8 213
1971336S07170 1972 156 SP MM URSULA 1971-12-06 15:00:00 TS -10.8850 162.594 main 34 31 P_______PPP_P_ SH051972 -10.9850 162.670 -1 -10.4798 161.993 66 968 -10.9415 162.650 TC 97 947 -10.9415 162.650 4 -10.9775 162.935 TC 102 947 8 203
1971336S07170 1972 156 SP MM URSULA 1971-12-06 18:00:00 TS -11.2758 162.463 main 60 57 O_______PPP_O_ jtwc_sh SH051972 -11.4000 162.500 -1 -10.7898 162.093 67 967 -11.3324 162.443 TC 100 945 -11.3324 162.443 4 -11.4000 162.800 TC 105 945 8 196
1971336S07170 1972 156 SP MM URSULA 1971-12-06 21:00:00 TS -11.6702 162.365 main 101 101 P_______PPP_P_ SH051972 -11.7925 162.348 -1 -11.1299 162.271 68 966 -11.7571 162.315 TC 102 942 -11.7571 162.315 4 -11.7925 162.590 TC 107 942 8 187
1971336S07170 1972 156 SP MM URSULA 1971-12-07 00:00:00 TS -12.0833 162.367 70 965 wellington main 146 146 O_______OOO_O_ jtwc_sh SH051972 -12.2000 162.300 -1 -11.5000 162.500 70 965 -12.2000 162.300 TC 105 940 -12.2000 162.300 4 -12.2000 162.500 TC 110 940 9 172
1971336S07170 1972 156 SP MM URSULA 1971-12-07 03:00:00 TS -12.5137 162.494 main 191 191 P_______PPP_P_ SH051972 -12.6424 162.383 -1 -11.8434 162.704 66 968 -12.6557 162.402 TC 98 946 -12.6557 162.402 4 -12.6425 162.690 TC 102 946 10 158
1971336S07170 1972 156 SP MM URSULA 1971-12-07 06:00:00 TS -12.9611 162.732 main 250 250 O_______PPP_O_ jtwc_sh SH051972 -13.1000 162.600 -1 -12.2224 162.954 62 972 -13.1222 162.620 TC 92 952 -13.1222 162.620 4 -13.1000 163.000 TC 95 952 10 150
1971336S07170 1972 156 SP MM URSULA 1971-12-07 09:00:00 TS -13.4204 163.023 main 300 300 P_______PPP_P_ SH051972 -13.5650 162.905 -1 -12.6652 163.252 58 976 -13.5776 162.927 TC 86 958 -13.5776 162.927 4 -13.5724 163.220 TC 87 958 11 145
1971336S07170 1972 156 SP MM URSULA 1971-12-07 12:00:00 TS -13.8667 163.383 55 980 wellington main 348 296 O_______OOO_O_ jtwc_sh SH051972 -14.0000 163.300 -1 -13.2000 163.600 55 980 -14.0000 163.300 TC 80 965 -14.0000 163.300 4 -14.0000 163.500 TC 80 965 11 139
1971336S07170 1972 156 SP MM URSULA 1971-12-07 15:00:00 TS -14.2808 163.794 main 296 247 P_______PPP_P_ SH051972 -14.3725 163.735 -1 -13.9379 163.998 55 980 -14.3773 163.692 TC 73 969 -14.3773 163.692 4 -14.2475 163.913 TC 75 969 12 135
1971336S07170 1972 156 SP MM URSULA 1971-12-07 18:00:00 TS -14.6980 164.254 main 236 196 O_______PPP_O_ jtwc_sh SH051972 -14.7000 164.200 -1 -14.7527 164.445 55 980 -14.7177 164.140 TC 67 974 -14.7177 164.140 4 -14.6000 164.400 TC 70 974 13 135
1971336S07170 1972 156 SP MM URSULA 1971-12-07 21:00:00 TS -15.1686 164.727 main 198 151 P_______PPP_P_ SH051972 -15.0149 164.650 -1 -15.5411 164.920 55 980 -15.0242 164.618 TC 61 979 -15.0242 164.618 4 -15.3925 164.907 TC 67 13 135
1971336S07170 1972 156 SP MM URSULA 1971-12-08 00:00:00 TS -15.6000 165.200 55 980 wellington main 151 120 O_______OOO_O_ jtwc_sh SH051972 -15.3000 165.100 -1 -16.2000 165.400 55 980 -15.3000 165.100 TC 55 984 -15.3000 165.100 4 -16.2000 165.400 TC 65 12 131
1971336S07170 1972 156 SP MM URSULA 1971-12-08 03:00:00 TS -15.9188 165.632 main 120 96 P_______PPP_P_ SH051972 -15.5649 165.550 -1 -16.6215 165.839 55 980 -15.5571 165.526 TC 53 985 -15.5571 165.526 4 -16.6472 165.801 TC 57 10 124
1971336S07170 1972 156 SP MM URSULA 1971-12-08 06:00:00 TS -16.1624 166.065 main 93 67 O_______PPP_O_ jtwc_sh SH051972 -15.8000 166.000 -1 -16.9016 166.279 55 980 -15.7865 165.956 TC 52 986 -15.7865 165.956 4 -16.9000 166.200 TC 50 10 118
1971336S07170 1972 156 SP MM URSULA 1971-12-08 09:00:00 TS -16.3643 166.515 main 72 42 P_______PPP_P_ SH051972 -16.0073 166.435 -1 -17.0809 166.729 55 980 -15.9976 166.408 TC 51 987 -15.9976 166.408 4 -17.0949 166.678 TC 45 10 112
1971336S07170 1972 156 SP MM URSULA 1971-12-08 12:00:00 TS -16.5333 167.000 55 980 wellington main 42 10 O_______OOO_O_ jtwc_sh SH051972 -16.2000 166.900 -1 -17.2000 167.200 55 980 -16.2000 166.900 TC 50 988 -16.2000 166.900 4 -17.2000 167.200 TC 40 10 109
1971336S07170 1972 156 SP MM URSULA 1971-12-08 15:00:00 TS -16.6919 167.532 main 11 11 P_______PPP_P_ SH051972 -16.3998 167.420 -1 -17.3046 167.692 55 980 -16.3950 167.453 TC 48 988 -16.3950 167.453 4 -17.2575 167.750 TC 40 11 106
1971336S07170 1972 156 SP MM URSULA 1971-12-08 18:00:00 TS -16.8390 168.101 main 39 39 O_______PPP_O_ jtwc_sh SH051972 -16.6000 168.000 -1 -17.3644 168.207 55 980 -16.5849 168.048 TC 47 989 -16.5849 168.048 4 -17.3000 168.300 TC 40 12 105
1971336S07170 1972 156 SP MM URSULA 1971-12-08 21:00:00 TS -16.9919 168.691 main 105 105 P_______PPP_P_ SH051972 -16.7924 168.635 -1 -17.4170 168.743 55 980 -16.7823 168.669 TC 46 989 -16.7823 168.669 4 -17.3847 168.793 TC 40 12 106
1971336S07170 1972 156 SP MM URSULA 1971-12-09 00:00:00 TS -17.1667 169.300 55 980 wellington main 173 173 O_______OOO_O_ jtwc_sh SH051972 -17.0000 169.300 -1 -17.5000 169.300 55 980 -17.0000 169.300 TC 45 990 -17.0000 169.300 4 -17.5000 169.300 TC 40 13 108
1971336S07170 1972 156 SP MM URSULA 1971-12-09 03:00:00 TS -17.3768 169.935 main 240 240 P_______PPP_P_ SH051972 -17.2349 169.958 -1 -17.6482 169.911 55 980 -17.2577 169.950 TC 45 990 -17.2577 169.950 4 -17.6274 169.885 TC 40 13 110
1971336S07170 1972 156 SP MM URSULA 1971-12-09 06:00:00 TS -17.6173 170.574 main 317 317 O_______PPP_O_ jtwc_sh SH051972 -17.5000 170.600 -1 -17.8332 170.537 55 980 -17.5354 170.602 TC 45 991 -17.5354 170.602 4 -17.8000 170.500 TC 40 13 113
1971336S07170 1972 156 SP MM URSULA 1971-12-09 09:00:00 TS -17.8866 171.196 main 389 389 P_______PPP_P_ SH051972 -17.7999 171.223 -1 -18.0514 171.145 55 980 -17.8203 171.228 TC 45 991 -17.8203 171.228 4 -18.0276 171.130 TC 40 13 116
1971336S07170 1972 156 SP MM URSULA 1971-12-09 12:00:00 TS -18.1667 171.767 55 980 wellington main 460 460 O_______OOO_O_ jtwc_sh SH051972 -18.1000 171.800 -1 -18.3000 171.700 55 980 -18.1000 171.800 TC 45 992 -18.1000 171.800 4 -18.3000 171.700 TC 40 11 119
1971336S07170 1972 156 SP MM URSULA 1971-12-09 15:00:00 TS -18.4322 172.253 main 518 481 P_______PPP_P_ SH051972 -18.3574 172.338 -1 -18.5575 172.122 55 980 -18.3644 172.295 TC 43 992 -18.3644 172.295 4 -18.5922 172.130 TC 40 10 122
1971336S07170 1972 156 SP MM URSULA 1971-12-09 18:00:00 TS -18.6980 172.677 main 481 454 O_______PPP_O_ jtwc_sh SH051972 -18.6000 172.800 -1 -18.8453 172.494 55 980 -18.6214 172.733 TC 42 993 -18.6214 172.733 4 -18.9000 172.500 TC 40 9 125
1971336S07170 1972 156 SP MM URSULA 1971-12-09 21:00:00 TS -18.9659 173.057 main 446 422 P_______PPP_P_ SH051972 -18.8573 173.173 -1 -19.1605 172.869 55 980 -18.8678 173.129 TC 41 993 -18.8678 173.129 4 -19.1847 172.870 TC 40 9 127
1971336S07170 1972 156 SP MM URSULA 1971-12-10 00:00:00 TS -19.2333 173.433 55 980 wellington main 422 390 O_______OOO_O_ jtwc_sh SH051972 -19.1000 173.500 -1 -19.5000 173.300 55 980 -19.1000 173.500 TC 40 994 -19.1000 173.500 4 -19.5000 173.300 TC 40 9 125
1971336S07170 1972 156 SP MM URSULA 1971-12-10 03:00:00 TS -19.4997 173.871 main 385 359 P_______PPP_P_ SH051972 -19.3074 173.850 -1 -19.9036 173.911 55 980 -19.2937 173.876 TC 40 994 -19.2937 173.876 4 -19.8925 173.862 TC 40 10 122
1971336S07170 1972 156 SP MM URSULA 1971-12-10 06:00:00 TS -19.7623 174.323 main 365 337 O_______PPP_O_ jtwc_sh SH051972 -19.5000 174.200 -1 -20.3196 174.577 55 980 -19.4770 174.231 TC 40 994 -19.4770 174.231 4 -20.3000 174.500 TC 40 10 122
1971336S07170 1972 156 SP MM URSULA 1971-12-10 09:00:00 TS -20.0220 174.776 main 337 322 P_______PPP_P_ SH051972 -19.6924 174.550 -1 -20.7005 175.230 55 980 -19.6719 174.570 TC 40 994 -19.6719 174.570 4 -20.7028 175.187 TC 40 10 121
1971336S07170 1972 156 SP MM URSULA 1971-12-10 12:00:00 TS -20.2667 175.200 55 980 wellington main 330 313 O_______OOO_O_ jtwc_sh SH051972 -19.9000 174.900 -1 -21.0000 175.800 55 980 -19.9000 174.900 TC 40 994 -19.9000 174.900 4 -21.0000 175.800 TC 40 9 120
1971336S07170 1972 156 SP MM URSULA 1971-12-10 15:00:00 TS -20.4566 175.581 main 322 315 P_______PPP_P_ SH051972 -20.1200 175.258 -1 -21.0912 176.244 55 980 -20.1607 175.257 TC 40 994 -20.1607 175.257 4 -21.0871 176.211 TC 40 8 120
1971336S07170 1972 156 SP MM URSULA 1971-12-10 18:00:00 TS -20.6553 175.916 main 325 321 O_______PPP_O_ jtwc_sh SH051972 -20.4000 175.600 -1 -21.1114 176.590 55 980 -20.4601 175.603 TC 40 994 -20.4601 175.603 4 -21.1000 176.500 TC 40 7 127
1971336S07170 1972 156 SP MM URSULA 1971-12-10 21:00:00 TS -20.9029 176.218 main 333 333 P_______PPP_P_ SH051972 -20.7624 175.915 -1 -21.1509 176.840 55 980 -20.8045 175.922 TC 40 994 -20.8045 175.922 4 -21.1325 176.795 TC 40 8 138
1971336S07170 1972 156 SP MM URSULA 1971-12-11 00:00:00 TS -21.2333 176.467 55 980 wellington main 354 354 O_______OOO_O_ jtwc_sh SH051972 -21.2000 176.200 -1 -21.3000 177.000 55 980 -21.2000 176.200 TC 40 994 -21.2000 176.200 4 -21.3000 177.000 TC 40 9 151
1971336S07170 1972 156 SP MM URSULA 1971-12-11 03:00:00 TS -21.6831 176.683 main 400 400 P_______PPP_P_ SH051972 -21.6850 176.480 -1 -21.6816 177.102 55 980 -21.6536 176.470 TC 40 994 -21.6536 176.470 4 -21.7399 177.095 TC 40 10 161
1971336S07170 1972 156 SP MM URSULA 1971-12-11 06:00:00 TS -22.1982 176.834 main 451 451 O_______PPP_O_ jtwc_sh SH051972 -22.2000 176.700 -1 -22.1797 177.120 55 980 -22.1548 176.691 TC 40 994 -22.1548 176.691 4 -22.3000 177.100 TC 40 11 168
1971336S07170 1972 156 SP MM URSULA 1971-12-11 09:00:00 TS -22.7158 176.924 main 502 502 P_______PPP_P_ SH051972 -22.6999 176.860 -1 -22.7380 177.078 55 980 -22.6786 176.842 TC 40 994 -22.6786 176.842 4 -22.8000 177.065 TC 40 10 175
1971336S07170 1972 156 SP MM URSULA 1971-12-11 12:00:00 TS -23.2333 176.933 55 980 wellington main 557 557 O_______OOO_O_ jtwc_sh SH051972 -23.2000 176.900 -1 -23.3000 177.000 55 980 -23.2000 176.900 TC 40 994 -23.2000 176.900 4 -23.3000 177.000 TC 40 10 183
1971336S07170 1972 156 SP MM URSULA 1971-12-11 15:00:00 TS -23.7363 176.862 main 612 612 P_______PPP_P_ SH051972 -23.7075 176.788 -1 -23.8064 176.957 55 980 -23.6944 176.837 TC 40 994 -23.6944 176.837 4 -23.8075 176.965 TC 37 10 191
1971336S07170 1972 156 SP MM URSULA 1971-12-11 18:00:00 TS -24.2271 176.725 main 671 671 O_______PPP_O_ jtwc_sh SH051972 -24.2000 176.600 -1 -24.3022 176.882 55 980 -24.1801 176.685 TC 40 994 -24.1801 176.685 4 -24.3000 176.900 TC 35 10 196
1971336S07170 1972 156 SP MM URSULA 1971-12-11 21:00:00 TS -24.6960 176.568 main 728 728 P_______PPP_P_ SH051972 -24.6650 176.442 -1 -24.7719 176.766 55 980 -24.6508 176.490 TC 40 994 -24.6508 176.490 4 -24.7725 176.780 TC 35 10 198
1971336S07170 1972 156 SP MM URSULA 1971-12-12 00:00:00 TS -25.1333 176.400 55 980 wellington main 775 775 O_______OOO_O_ jtwc_sh SH051972 -25.1000 176.300 -1 -25.2000 176.600 55 980 -25.1000 176.300 TC 40 994 -25.1000 176.300 4 -25.2000 176.600 TC 35 9 198
1971336S07170 1972 156 SP MM URSULA 1971-12-12 03:00:00 TS -25.5378 176.259 main 821 821 P_______PPP_P_ SH051972 -25.5075 176.192 -1 -25.5645 176.355 51 982 -25.5374 176.221 TC 40 994 -25.5374 176.221 4 -25.5725 176.372 TC 32 8 198
1971336S07170 1972 156 SP MM URSULA 1971-12-12 06:00:00 TS -25.9153 176.111 main 869 869 O_______PPP_O_ jtwc_sh SH051972 -25.9000 176.100 -1 -25.8881 176.065 47 985 -25.9519 176.151 TC 40 994 -25.9519 176.151 4 -25.9000 176.100 TC 30 8 200
1971336S07170 1972 156 SP MM URSULA 1971-12-12 09:00:00 TS -26.2814 175.951 main 915 915 P_______PPP_P_ SH051972 -26.3074 176.022 -1 -26.1926 175.768 43 987 -26.3404 176.055 TC 40 994 -26.3404 176.055 4 -26.2001 175.785 TC 27 8 203
1971336S07170 1972 156 SP MM URSULA 1971-12-12 12:00:00 TS -26.6333 175.767 40 990 wellington main 921 872 O_______OOO_O_ jtwc_sh SH051972 -26.7000 175.900 -1 -26.5000 175.500 40 990 -26.7000 175.900 TC 40 994 -26.7000 175.900 4 -26.5000 175.500 TC 25 8 205
1971336S07170 1972 156 SP MM URSULA 1971-12-12 15:00:00 TS -26.9998 175.577 main 872 835 P_______PPP_P_ SH051972 -27.0724 175.695 -1 -26.8580 175.373 40 990 -27.0768 175.685 TC 40 994 -27.0768 175.685 4 -26.8424 175.327 TC 25 8 208
1971336S07170 1972 156 SP MM URSULA 1971-12-12 18:00:00 TS -27.3431 175.346 main 832 795 O_______PPP_O_ jtwc_sh SH051972 -27.4000 175.400 -1 -27.2208 175.273 40 990 -27.4188 175.401 TC 40 994 -27.4188 175.401 4 -27.2000 175.200 TC 25 8 215
1971336S07170 1972 156 SP MM URSULA 1971-12-12 21:00:00 TS -27.6551 175.070 main 784 753 P_______PPP_P_ SH051972 -27.7022 175.053 -1 -27.5733 175.136 40 990 -27.7015 175.042 TC 40 994 -27.7015 175.042 4 -27.5497 175.094 TC 25 8 226
1971336S07170 1972 156 SP MM URSULA 1971-12-13 00:00:00 TS -27.9000 174.700 40 990 wellington main 753 734 O_______OOO_O_ jtwc_sh SH051972 -27.9000 174.600 -1 -27.9000 174.900 40 990 -27.9000 174.600 TC 40 994 -27.9000 174.600 4 -27.9000 174.900 TC 25 9 243
1971336S07170 1972 156 SP MM URSULA 1971-12-13 03:00:00 TS -28.0516 174.192 main 722 716 P_______PPP_P_ SH051972 -27.9376 174.030 -1 -28.2031 174.512 40 990 -27.9758 174.033 TC 40 994 -27.9758 174.033 4 -28.2799 174.518 TC 22 10 256
1971336S07170 1972 156 SP MM URSULA 1971-12-13 06:00:00 TS -28.1358 173.602 main 716 702 O_______PPP_O_ jtwc_sh SH051972 -27.9000 173.400 -1 -28.4747 174.016 40 990 -27.9701 173.397 TC 40 994 -27.9701 173.397 4 -28.6000 174.000 TC 20 11 263
1971336S07170 1972 156 SP MM URSULA 1971-12-13 09:00:00 TS -28.1912 172.988 main 702 702 P_______PPP_P_ SH051972 -27.8927 172.762 -1 -28.7089 173.437 40 990 -27.9290 172.764 TC 40 994 -27.9290 172.764 4 -28.7948 173.437 TC 20 11 265
1971336S07170 1972 156 SP MM URSULA 1971-12-13 12:00:00 TS -28.2333 172.400 40 990 wellington main 703 692 O_______OOO_O_ jtwc_sh SH051972 -27.9000 172.200 -1 -28.9000 172.800 40 990 -27.9000 172.200 TC 40 994 -27.9000 172.200 4 -28.9000 172.800 TC 20 10 264
1971336S07170 1972 156 SP MM URSULA 1971-12-13 15:00:00 TS -28.2861 171.889 main 694 694 P_______PPP_P_ SH051972 -27.9346 171.805 -1 -29.0498 172.056 40 990 -27.9238 171.775 TC 40 994 -27.9238 171.775 4 -28.9499 172.114 TC 20 9 262
1971336S07170 1972 156 SP MM URSULA 1971-12-13 18:00:00 TS -28.3506 171.423 main 689 689 O_______PPP_O_ jtwc_sh SH051972 -28.0000 171.500 -1 -29.1564 171.279 40 990 -27.9736 171.430 TC 40 994 -27.9736 171.430 4 -29.0000 171.400 TC 20 8 259
1971336S07170 1972 156 SP MM URSULA 1971-12-13 21:00:00 TS -28.4414 170.971 main 697 684 P_______PPP_P_ SH051972 -28.0700 171.177 -1 -29.2342 170.563 40 990 -28.0617 171.144 TC 40 994 -28.0617 171.144 4 -29.1506 170.618 TC 20 8 253
1971336S07170 1972 156 SP MM URSULA 1971-12-14 00:00:00 TS -28.5667 170.600 40 990 wellington main 684 676 O_______OOO_O_ jtwc_sh SH051972 -28.2000 170.900 -1 -29.3000 170.000 40 990 -28.2000 170.900 TC 40 994 -28.2000 170.900 4 -29.3000 170.000 TC 20 6 241
1971336S07170 1972 156 SP MM URSULA 1971-12-14 03:00:00 TS -28.7323 170.364 main 679 661 P_______PPP_P_ SH051972 -28.4274 170.685 -1 -29.3758 169.709 37 991 -28.4033 170.672 TC 40 994 -28.4033 170.672 4 -29.3569 169.760 TC 20 5 224
1971336S07170 1972 156 SP MM URSULA 1971-12-14 06:00:00 TS -28.9260 170.205 main 664 646 O_______PPP_O_ jtwc_sh SH051972 -28.7000 170.500 -1 -29.4474 169.577 35 993 -28.6544 170.477 TC 40 994 -28.6544 170.477 4 -29.4000 169.700 TC 20 5 214
1971336S07170 1972 156 SP MM URSULA 1971-12-14 09:00:00 TS -29.1282 170.056 main 646 629 P_______PPP_P_ SH051972 -28.9499 170.307 -1 -29.5204 169.531 32 995 -28.9283 170.294 TC 40 994 -28.9283 170.294 4 -29.4925 169.600 TC 20 5 213
1971336S07170 1972 156 SP MM URSULA 1971-12-14 12:00:00 TS -29.3333 169.900 30 997 wellington main 633 616 O_______OOO_O_ jtwc_sh SH051972 -29.2000 170.100 -1 -29.6000 169.500 30 997 -29.2000 170.100 TC 40 995 -29.2000 170.100 4 -29.6000 169.500 TC 20 5 218
1971336S07170 1972 156 SP MM URSULA 1971-12-14 15:00:00 TS -29.5351 169.698 main 620 605 P_______PPP_P_ SH051972 -29.4575 169.857 -1 -29.6900 169.426 30 997 -29.4527 169.848 TC 38 995 -29.4527 169.848 4 -29.7000 169.350 TC 17 5 222
1971336S07170 1972 156 SP MM URSULA 1971-12-14 18:00:00 TS -29.7240 169.500 main 609 594 O_______PPP_O_ jtwc_sh SH051972 -29.7000 169.600 -1 -29.7886 169.308 30 997 -29.6952 169.585 TC 37 995 -29.6952 169.585 4 -29.8000 169.200 TC 15 5 223
1971336S07170 1972 156 SP MM URSULA 1971-12-14 21:00:00 TS -29.9144 169.291 main 599 590 P_______PPP_P_ SH051972 -29.9225 169.335 -1 -29.8930 169.161 30 997 -29.9152 169.330 TC 36 995 -29.9152 169.330 4 -29.9000 169.088 TC 15 5 224
1971336S07170 1972 156 SP MM URSULA 1971-12-15 00:00:00 TS -30.0889 169.089 30 997 wellington main 590 586 O_______OOO_O_ jtwc_sh SH051972 -30.1000 169.100 -1 -30.0000 169.000 30 997 -30.1000 169.100 TC 35 996 -30.1000 169.100 4 -30.0000 169.000 TC 15 4 226
1971336S07170 1972 156 SP MM URSULA 1971-12-15 03:00:00 TS -30.2233 168.926 main 591 582 P________PP___ SH051972 -30.2149 168.935 -1 -30.2316 168.917 TC 35 996 -30.2316 168.917 4 TC 3 230
1971336S07170 1972 156 SP MM URSULA 1971-12-15 06:00:00 TS -30.3149 168.781 main 588 585 O________PP___ jtwc_sh SH051972 -30.3000 168.800 -1 -30.3297 168.762 TC 35 997 -30.3297 168.762 4 3 233
1971336S07170 1972 156 SP MM URSULA 1971-12-15 09:00:00 TS -30.4065 168.638 main 591 582 P________PP___ SH051972 -30.4000 168.650 -1 -30.4130 168.626 TC 35 997 -30.4130 168.626 4 3 232
1971336S07170 1972 156 SP MM URSULA 1971-12-15 12:00:00 TS -30.5000 168.500 main 588 586 O________OO___ jtwc_sh SH051972 -30.5000 168.500 -1 -30.5000 168.500 TC 35 998 -30.5000 168.500 4 3 231
1971336S07170 1972 156 SP MM URSULA 1971-12-15 15:00:00 TS -30.5990 168.359 main 586 584 P________PP___ SH051972 -30.5925 168.342 -1 -30.6054 168.375 TC 30 1000 -30.6054 168.375 4 3 228
1971336S07170 1972 156 SP MM URSULA 1971-12-15 18:00:00 TS -30.7138 168.225 main 590 582 O________PP___ jtwc_sh SH051972 -30.7000 168.200 -1 -30.7277 168.251 TC 25 1003 -30.7277 168.251 4 3 221
1971336S07170 1972 156 SP MM URSULA 1971-12-15 21:00:00 TS -30.8505 168.108 main 581 580 P________PP___ SH051972 -30.8400 168.090 -1 -30.8611 168.125 TC 20 1005 -30.8611 168.125 4 3 214
1971336S07170 1972 156 SP MM URSULA 1971-12-16 00:00:00 TS -31.0000 168.000 main 580 O________OO___ jtwc_sh SH051972 -31.0000 168.000 -1 -31.0000 168.000 TC 15 1008 -31.0000 168.000 6 4 210

Digital Typhoon Data and Search

About IBTrACS Database

This database is a web-friendly format of International Best Track Archive for Climate Stewardship (IBTrACS), a global best track data archive curated by NOAA dating back to 1842.

Updated: 2021-11-26